CIA weather

Ciampino–G. B. Pastine International Airport
Rome, Lazio, Italy

Public forecast

Using degrees Celsius for public forecast. Weather courtesy of forecast.io.

METAR (pilot weather report)

Retrieved 2019/04/21 21:20 UTC (22 minutes ago):

LIRA 212120Z 09005KT 070V140 CAVOK 17/02 Q1014

TAF (pilot weather forecast)

Retrieved 2019/04/21 18:00 UTC (4 hours ago):

TAF LIRA 211700Z 2118/2218 VRB05KT 9999 SCT030 BECMG 2208/2210 15015KT TEMPO 2212/2218 RA